sensor_id;sensor_type;location;lat;lon;timestamp;P1;durP1;ratioP1;P2;durP2;ratioP2
35188;SDS011;21762;54.480;18.556;2022-09-29T00:01:12;31.27;;;17.48;;
35188;SDS011;21762;54.480;18.556;2022-09-29T00:03:42;31.48;;;17.83;;
35188;SDS011;21762;54.480;18.556;2022-09-29T00:06:11;37.42;;;18.08;;
35188;SDS011;21762;54.480;18.556;2022-09-29T00:08:42;26.88;;;16.17;;
35188;SDS011;21762;54.480;18.556;2022-09-29T00:11:14;33.45;;;17.40;;
35188;SDS011;21762;54.480;18.556;2022-09-29T00:13:44;30.17;;;16.27;;
35188;SDS011;21762;54.480;18.556;2022-09-29T00:16:13;26.58;;;15.55;;
35188;SDS011;21762;54.480;18.556;2022-09-29T00:18:44;26.57;;;15.23;;
35188;SDS011;21762;54.480;18.556;2022-09-29T00:21:13;29.38;;;14.65;;
35188;SDS011;21762;54.480;18.556;2022-09-29T00:23:44;24.35;;;14.35;;
35188;SDS011;21762;54.480;18.556;2022-09-29T00:26:14;28.50;;;15.23;;
35188;SDS011;21762;54.480;18.556;2022-09-29T00:28:45;23.70;;;13.93;;
35188;SDS011;21762;54.480;18.556;2022-09-29T00:31:14;28.80;;;13.95;;
35188;SDS011;21762;54.480;18.556;2022-09-29T00:33:43;30.52;;;15.10;;
35188;SDS011;21762;54.480;18.556;2022-09-29T00:36:12;23.80;;;13.40;;
35188;SDS011;21762;54.480;18.556;2022-09-29T00:38:42;26.33;;;13.23;;
35188;SDS011;21762;54.480;18.556;2022-09-29T00:41:13;29.17;;;14.00;;
35188;SDS011;21762;54.480;18.556;2022-09-29T00:46:32;20.50;;;11.82;;
35188;SDS011;21762;54.480;18.556;2022-09-29T00:49:06;20.80;;;12.55;;
35188;SDS011;21762;54.480;18.556;2022-09-29T00:51:41;23.35;;;12.77;;
35188;SDS011;21762;54.480;18.556;2022-09-29T00:54:13;23.73;;;13.52;;
35188;SDS011;21762;54.480;18.556;2022-09-29T00:56:42;26.38;;;13.27;;
35188;SDS011;21762;54.480;18.556;2022-09-29T00:59:11;24.50;;;13.10;;
35188;SDS011;21762;54.480;18.556;2022-09-29T01:01:41;20.25;;;12.60;;
35188;SDS011;21762;54.480;18.556;2022-09-29T01:04:10;19.27;;;11.77;;
35188;SDS011;21762;54.480;18.556;2022-09-29T01:06:40;21.23;;;12.27;;
35188;SDS011;21762;54.480;18.556;2022-09-29T01:09:14;19.83;;;12.18;;
35188;SDS011;21762;54.480;18.556;2022-09-29T01:11:45;22.67;;;12.55;;
35188;SDS011;21762;54.480;18.556;2022-09-29T01:14:13;17.75;;;11.20;;
35188;SDS011;21762;54.480;18.556;2022-09-29T01:16:42;19.48;;;11.45;;
35188;SDS011;21762;54.480;18.556;2022-09-29T01:19:12;22.25;;;11.73;;
35188;SDS011;21762;54.480;18.556;2022-09-29T01:21:49;20.83;;;11.88;;
35188;SDS011;21762;54.480;18.556;2022-09-29T01:24:30;16.33;;;10.80;;
35188;SDS011;21762;54.480;18.556;2022-09-29T01:27:30;20.67;;;11.15;;
35188;SDS011;21762;54.480;18.556;2022-09-29T01:30:17;19.73;;;11.70;;
35188;SDS011;21762;54.480;18.556;2022-09-29T01:32:53;20.73;;;11.00;;
35188;SDS011;21762;54.480;18.556;2022-09-29T01:35:33;20.77;;;11.38;;
35188;SDS011;21762;54.480;18.556;2022-09-29T01:38:11;19.05;;;10.40;;
35188;SDS011;21762;54.480;18.556;2022-09-29T01:40:47;22.33;;;11.50;;
35188;SDS011;21762;54.480;18.556;2022-09-29T01:43:22;18.45;;;10.18;;
35188;SDS011;21762;54.480;18.556;2022-09-29T01:45:56;18.67;;;10.77;;
35188;SDS011;21762;54.480;18.556;2022-09-29T01:48:33;16.17;;;10.70;;
35188;SDS011;21762;54.480;18.556;2022-09-29T01:51:06;20.05;;;10.15;;
35188;SDS011;21762;54.480;18.556;2022-09-29T01:53:38;19.38;;;9.52;;
35188;SDS011;21762;54.480;18.556;2022-09-29T01:56:10;17.27;;;9.93;;
35188;SDS011;21762;54.480;18.556;2022-09-29T01:58:44;16.30;;;9.70;;
35188;SDS011;21762;54.480;18.556;2022-09-29T02:01:15;14.30;;;8.88;;
35188;SDS011;21762;54.480;18.556;2022-09-29T02:03:50;14.50;;;9.07;;
35188;SDS011;21762;54.480;18.556;2022-09-29T02:06:21;13.27;;;8.20;;
35188;SDS011;21762;54.480;18.556;2022-09-29T02:08:53;20.20;;;9.18;;
35188;SDS011;21762;54.480;18.556;2022-09-29T02:11:24;16.88;;;9.18;;
35188;SDS011;21762;54.480;18.556;2022-09-29T02:13:58;13.05;;;8.30;;
35188;SDS011;21762;54.480;18.556;2022-09-29T02:16:29;14.40;;;8.65;;
35188;SDS011;21762;54.480;18.556;2022-09-29T02:19:03;11.13;;;7.53;;
35188;SDS011;21762;54.480;18.556;2022-09-29T02:21:38;13.70;;;8.40;;
35188;SDS011;21762;54.480;18.556;2022-09-29T02:24:06;13.50;;;8.43;;
35188;SDS011;21762;54.480;18.556;2022-09-29T02:26:34;13.07;;;8.38;;
35188;SDS011;21762;54.480;18.556;2022-09-29T02:29:03;13.35;;;8.18;;
35188;SDS011;21762;54.480;18.556;2022-09-29T02:31:33;12.93;;;7.70;;
35188;SDS011;21762;54.480;18.556;2022-09-29T02:34:04;13.02;;;7.88;;
35188;SDS011;21762;54.480;18.556;2022-09-29T02:36:37;10.75;;;7.25;;
35188;SDS011;21762;54.480;18.556;2022-09-29T02:39:10;11.02;;;8.35;;
35188;SDS011;21762;54.480;18.556;2022-09-29T02:41:44;14.13;;;8.07;;
35188;SDS011;21762;54.480;18.556;2022-09-29T02:44:21;14.32;;;7.60;;
35188;SDS011;21762;54.480;18.556;2022-09-29T02:47:11;14.02;;;8.02;;
35188;SDS011;21762;54.480;18.556;2022-09-29T02:52:50;12.13;;;7.72;;
35188;SDS011;21762;54.480;18.556;2022-09-29T02:55:24;11.65;;;7.53;;
35188;SDS011;21762;54.480;18.556;2022-09-29T02:57:57;11.07;;;7.93;;
35188;SDS011;21762;54.480;18.556;2022-09-29T03:00:26;16.38;;;8.35;;
35188;SDS011;21762;54.480;18.556;2022-09-29T03:02:55;12.15;;;7.97;;
35188;SDS011;21762;54.480;18.556;2022-09-29T03:05:24;13.65;;;8.60;;
35188;SDS011;21762;54.480;18.556;2022-09-29T03:07:53;10.30;;;7.90;;
35188;SDS011;21762;54.480;18.556;2022-09-29T03:10:22;12.55;;;8.30;;
35188;SDS011;21762;54.480;18.556;2022-09-29T03:12:53;10.15;;;7.38;;
35188;SDS011;21762;54.480;18.556;2022-09-29T03:15:21;11.10;;;8.52;;
35188;SDS011;21762;54.480;18.556;2022-09-29T03:17:50;12.25;;;7.78;;
35188;SDS011;21762;54.480;18.556;2022-09-29T03:20:22;12.82;;;7.82;;
35188;SDS011;21762;54.480;18.556;2022-09-29T03:22:55;10.23;;;7.35;;
35188;SDS011;21762;54.480;18.556;2022-09-29T03:25:24;13.85;;;7.85;;
35188;SDS011;21762;54.480;18.556;2022-09-29T03:27:52;12.55;;;7.53;;
35188;SDS011;21762;54.480;18.556;2022-09-29T03:30:21;14.57;;;7.43;;
35188;SDS011;21762;54.480;18.556;2022-09-29T03:32:50;13.07;;;7.55;;
35188;SDS011;21762;54.480;18.556;2022-09-29T03:35:18;12.13;;;8.48;;
35188;SDS011;21762;54.480;18.556;2022-09-29T03:37:46;10.07;;;7.28;;
35188;SDS011;21762;54.480;18.556;2022-09-29T03:40:16;12.15;;;7.32;;
35188;SDS011;21762;54.480;18.556;2022-09-29T03:42:44;13.13;;;7.90;;
35188;SDS011;21762;54.480;18.556;2022-09-29T03:45:13;12.07;;;7.80;;
35188;SDS011;21762;54.480;18.556;2022-09-29T03:47:41;13.30;;;8.30;;
35188;SDS011;21762;54.480;18.556;2022-09-29T03:50:10;11.90;;;8.07;;
35188;SDS011;21762;54.480;18.556;2022-09-29T03:52:38;11.38;;;7.63;;
35188;SDS011;21762;54.480;18.556;2022-09-29T03:55:09;11.00;;;7.22;;
35188;SDS011;21762;54.480;18.556;2022-09-29T03:57:39;13.38;;;7.50;;
35188;SDS011;21762;54.480;18.556;2022-09-29T04:00:08;17.77;;;8.73;;
35188;SDS011;21762;54.480;18.556;2022-09-29T04:02:37;12.07;;;7.97;;
35188;SDS011;21762;54.480;18.556;2022-09-29T04:05:05;9.80;;;7.28;;
35188;SDS011;21762;54.480;18.556;2022-09-29T04:07:34;11.07;;;7.35;;
35188;SDS011;21762;54.480;18.556;2022-09-29T04:10:05;11.15;;;7.35;;
35188;SDS011;21762;54.480;18.556;2022-09-29T04:15:06;10.98;;;7.18;;
35188;SDS011;21762;54.480;18.556;2022-09-29T04:17:35;10.90;;;8.00;;
35188;SDS011;21762;54.480;18.556;2022-09-29T04:20:03;10.30;;;7.63;;
35188;SDS011;21762;54.480;18.556;2022-09-29T04:22:33;12.63;;;7.70;;
35188;SDS011;21762;54.480;18.556;2022-09-29T04:25:01;14.52;;;7.43;;
35188;SDS011;21762;54.480;18.556;2022-09-29T04:27:30;11.32;;;7.35;;
35188;SDS011;21762;54.480;18.556;2022-09-29T04:30:00;12.32;;;7.78;;
35188;SDS011;21762;54.480;18.556;2022-09-29T04:32:29;12.25;;;7.82;;
35188;SDS011;21762;54.480;18.556;2022-09-29T04:34:59;12.00;;;8.13;;
35188;SDS011;21762;54.480;18.556;2022-09-29T04:37:27;11.32;;;7.13;;
35188;SDS011;21762;54.480;18.556;2022-09-29T04:39:57;12.27;;;7.90;;
35188;SDS011;21762;54.480;18.556;2022-09-29T04:42:28;13.63;;;8.05;;
35188;SDS011;21762;54.480;18.556;2022-09-29T04:44:56;13.80;;;8.60;;
35188;SDS011;21762;54.480;18.556;2022-09-29T04:47:30;11.95;;;7.75;;
35188;SDS011;21762;54.480;18.556;2022-09-29T04:49:59;12.45;;;8.50;;
35188;SDS011;21762;54.480;18.556;2022-09-29T04:52:27;12.52;;;8.32;;
35188;SDS011;21762;54.480;18.556;2022-09-29T04:54:55;9.93;;;8.18;;
35188;SDS011;21762;54.480;18.556;2022-09-29T04:57:23;14.07;;;9.07;;
35188;SDS011;21762;54.480;18.556;2022-09-29T04:59:52;17.65;;;8.35;;
35188;SDS011;21762;54.480;18.556;2022-09-29T05:02:20;14.13;;;9.05;;
35188;SDS011;21762;54.480;18.556;2022-09-29T05:04:50;14.85;;;8.93;;
35188;SDS011;21762;54.480;18.556;2022-09-29T05:07:18;13.68;;;8.63;;
35188;SDS011;21762;54.480;18.556;2022-09-29T05:09:49;14.05;;;9.13;;
35188;SDS011;21762;54.480;18.556;2022-09-29T05:12:17;14.60;;;10.00;;
35188;SDS011;21762;54.480;18.556;2022-09-29T05:14:46;13.63;;;8.18;;
35188;SDS011;21762;54.480;18.556;2022-09-29T05:17:14;14.55;;;9.23;;
35188;SDS011;21762;54.480;18.556;2022-09-29T05:19:43;12.60;;;8.52;;
35188;SDS011;21762;54.480;18.556;2022-09-29T05:22:12;21.55;;;10.20;;
35188;SDS011;21762;54.480;18.556;2022-09-29T05:24:41;12.70;;;8.88;;
35188;SDS011;21762;54.480;18.556;2022-09-29T05:27:09;14.18;;;9.15;;
35188;SDS011;21762;54.480;18.556;2022-09-29T05:29:37;15.00;;;9.85;;
35188;SDS011;21762;54.480;18.556;2022-09-29T05:32:05;11.38;;;8.18;;
35188;SDS011;21762;54.480;18.556;2022-09-29T05:34:34;11.52;;;7.85;;
35188;SDS011;21762;54.480;18.556;2022-09-29T05:37:02;15.27;;;9.13;;
35188;SDS011;21762;54.480;18.556;2022-09-29T05:39:32;14.60;;;9.38;;
35188;SDS011;21762;54.480;18.556;2022-09-29T05:42:02;16.52;;;9.27;;
35188;SDS011;21762;54.480;18.556;2022-09-29T05:44:32;16.35;;;9.73;;
35188;SDS011;21762;54.480;18.556;2022-09-29T05:47:00;13.90;;;8.98;;
35188;SDS011;21762;54.480;18.556;2022-09-29T05:49:28;14.32;;;8.95;;
35188;SDS011;21762;54.480;18.556;2022-09-29T05:51:58;15.70;;;9.80;;
35188;SDS011;21762;54.480;18.556;2022-09-29T05:54:27;15.00;;;9.15;;
35188;SDS011;21762;54.480;18.556;2022-09-29T05:56:56;16.10;;;9.52;;
35188;SDS011;21762;54.480;18.556;2022-09-29T05:59:25;13.73;;;8.27;;
35188;SDS011;21762;54.480;18.556;2022-09-29T06:01:53;15.32;;;8.68;;
35188;SDS011;21762;54.480;18.556;2022-09-29T06:04:21;12.93;;;8.88;;
35188;SDS011;21762;54.480;18.556;2022-09-29T06:06:49;13.45;;;8.38;;
35188;SDS011;21762;54.480;18.556;2022-09-29T06:09:19;11.27;;;8.18;;
35188;SDS011;21762;54.480;18.556;2022-09-29T06:11:47;14.63;;;7.40;;
35188;SDS011;21762;54.480;18.556;2022-09-29T06:14:19;11.87;;;7.83;;
35188;SDS011;21762;54.480;18.556;2022-09-29T06:16:50;14.05;;;7.25;;
35188;SDS011;21762;54.480;18.556;2022-09-29T06:19:18;11.05;;;7.03;;
35188;SDS011;21762;54.480;18.556;2022-09-29T06:21:46;14.23;;;7.75;;
35188;SDS011;21762;54.480;18.556;2022-09-29T06:24:17;13.57;;;7.15;;
35188;SDS011;21762;54.480;18.556;2022-09-29T06:26:45;12.73;;;7.53;;
35188;SDS011;21762;54.480;18.556;2022-09-29T06:29:13;11.55;;;6.97;;
35188;SDS011;21762;54.480;18.556;2022-09-29T06:31:45;12.20;;;7.75;;
35188;SDS011;21762;54.480;18.556;2022-09-29T06:34:16;11.20;;;6.95;;
35188;SDS011;21762;54.480;18.556;2022-09-29T06:36:44;9.93;;;6.20;;
35188;SDS011;21762;54.480;18.556;2022-09-29T06:39:30;11.10;;;6.97;;
35188;SDS011;21762;54.480;18.556;2022-09-29T06:41:58;13.02;;;6.35;;
35188;SDS011;21762;54.480;18.556;2022-09-29T06:44:28;9.15;;;6.22;;
35188;SDS011;21762;54.480;18.556;2022-09-29T06:46:58;11.38;;;7.05;;
35188;SDS011;21762;54.480;18.556;2022-09-29T06:49:27;8.83;;;6.90;;
35188;SDS011;21762;54.480;18.556;2022-09-29T06:51:56;11.80;;;6.88;;
35188;SDS011;21762;54.480;18.556;2022-09-29T06:54:24;7.72;;;4.95;;
35188;SDS011;21762;54.480;18.556;2022-09-29T06:56:53;9.68;;;5.32;;
35188;SDS011;21762;54.480;18.556;2022-09-29T06:59:21;9.10;;;5.50;;
35188;SDS011;21762;54.480;18.556;2022-09-29T07:01:49;10.30;;;5.07;;
35188;SDS011;21762;54.480;18.556;2022-09-29T07:04:19;12.70;;;5.13;;
35188;SDS011;21762;54.480;18.556;2022-09-29T07:06:48;8.73;;;5.43;;
35188;SDS011;21762;54.480;18.556;2022-09-29T07:09:17;8.60;;;4.95;;
35188;SDS011;21762;54.480;18.556;2022-09-29T07:11:46;10.68;;;5.40;;
35188;SDS011;21762;54.480;18.556;2022-09-29T07:14:15;12.20;;;5.70;;
35188;SDS011;21762;54.480;18.556;2022-09-29T07:16:44;8.43;;;5.05;;
35188;SDS011;21762;54.480;18.556;2022-09-29T07:19:14;11.02;;;5.43;;
35188;SDS011;21762;54.480;18.556;2022-09-29T07:21:45;8.52;;;5.18;;
35188;SDS011;21762;54.480;18.556;2022-09-29T07:24:14;11.85;;;4.63;;
35188;SDS011;21762;54.480;18.556;2022-09-29T07:26:42;7.88;;;4.30;;
35188;SDS011;21762;54.480;18.556;2022-09-29T07:29:10;6.72;;;3.72;;
35188;SDS011;21762;54.480;18.556;2022-09-29T07:31:42;10.82;;;5.07;;
35188;SDS011;21762;54.480;18.556;2022-09-29T07:34:16;9.30;;;4.20;;
35188;SDS011;21762;54.480;18.556;2022-09-29T07:36:45;5.80;;;3.78;;
35188;SDS011;21762;54.480;18.556;2022-09-29T07:39:18;10.32;;;5.05;;
35188;SDS011;21762;54.480;18.556;2022-09-29T07:41:47;6.70;;;4.68;;
35188;SDS011;21762;54.480;18.556;2022-09-29T07:44:17;12.00;;;6.20;;
35188;SDS011;21762;54.480;18.556;2022-09-29T07:46:47;9.18;;;5.30;;
35188;SDS011;21762;54.480;18.556;2022-09-29T07:49:15;7.80;;;5.30;;
35188;SDS011;21762;54.480;18.556;2022-09-29T07:51:43;7.35;;;5.15;;
35188;SDS011;21762;54.480;18.556;2022-09-29T07:54:16;11.82;;;5.50;;
35188;SDS011;21762;54.480;18.556;2022-09-29T07:56:44;7.78;;;4.90;;
35188;SDS011;21762;54.480;18.556;2022-09-29T07:59:12;8.05;;;5.10;;
35188;SDS011;21762;54.480;18.556;2022-09-29T08:01:40;13.07;;;5.15;;
35188;SDS011;21762;54.480;18.556;2022-09-29T08:04:09;12.85;;;5.45;;
35188;SDS011;21762;54.480;18.556;2022-09-29T08:06:37;10.55;;;5.68;;
35188;SDS011;21762;54.480;18.556;2022-09-29T08:09:07;10.80;;;5.65;;
35188;SDS011;21762;54.480;18.556;2022-09-29T08:11:38;10.30;;;5.03;;
35188;SDS011;21762;54.480;18.556;2022-09-29T08:14:08;12.23;;;5.68;;
35188;SDS011;21762;54.480;18.556;2022-09-29T08:16:41;11.85;;;5.05;;
35188;SDS011;21762;54.480;18.556;2022-09-29T08:19:09;7.57;;;5.10;;
35188;SDS011;21762;54.480;18.556;2022-09-29T08:21:42;12.02;;;5.28;;
35188;SDS011;21762;54.480;18.556;2022-09-29T08:24:12;9.25;;;5.30;;
35188;SDS011;21762;54.480;18.556;2022-09-29T08:26:41;12.65;;;5.65;;
35188;SDS011;21762;54.480;18.556;2022-09-29T08:29:10;8.55;;;4.88;;
35188;SDS011;21762;54.480;18.556;2022-09-29T08:31:42;8.63;;;5.30;;
35188;SDS011;21762;54.480;18.556;2022-09-29T08:34:10;10.93;;;5.10;;
35188;SDS011;21762;54.480;18.556;2022-09-29T08:36:40;11.50;;;5.20;;
35188;SDS011;21762;54.480;18.556;2022-09-29T08:39:09;6.07;;;4.53;;
35188;SDS011;21762;54.480;18.556;2022-09-29T08:41:50;11.60;;;5.57;;
35188;SDS011;21762;54.480;18.556;2022-09-29T08:44:22;6.63;;;5.28;;
35188;SDS011;21762;54.480;18.556;2022-09-29T08:47:03;13.10;;;4.97;;
35188;SDS011;21762;54.480;18.556;2022-09-29T08:49:36;8.07;;;4.88;;
35188;SDS011;21762;54.480;18.556;2022-09-29T08:52:09;13.60;;;5.03;;
35188;SDS011;21762;54.480;18.556;2022-09-29T08:54:43;7.40;;;5.20;;
35188;SDS011;21762;54.480;18.556;2022-09-29T08:57:17;8.82;;;5.80;;
35188;SDS011;21762;54.480;18.556;2022-09-29T08:59:47;8.57;;;5.07;;
35188;SDS011;21762;54.480;18.556;2022-09-29T09:02:27;7.30;;;4.78;;
35188;SDS011;21762;54.480;18.556;2022-09-29T09:05:11;8.18;;;5.00;;
35188;SDS011;21762;54.480;18.556;2022-09-29T09:07:45;8.68;;;5.47;;
35188;SDS011;21762;54.480;18.556;2022-09-29T09:10:20;11.32;;;5.88;;
35188;SDS011;21762;54.480;18.556;2022-09-29T09:12:58;8.43;;;5.55;;
35188;SDS011;21762;54.480;18.556;2022-09-29T09:15:40;9.38;;;5.68;;
35188;SDS011;21762;54.480;18.556;2022-09-29T09:18:23;6.95;;;4.53;;
35188;SDS011;21762;54.480;18.556;2022-09-29T09:21:13;9.13;;;5.32;;
35188;SDS011;21762;54.480;18.556;2022-09-29T09:23:50;9.68;;;5.38;;
35188;SDS011;21762;54.480;18.556;2022-09-29T09:26:23;7.25;;;5.10;;
35188;SDS011;21762;54.480;18.556;2022-09-29T09:28:56;7.85;;;4.88;;
35188;SDS011;21762;54.480;18.556;2022-09-29T09:31:28;7.22;;;4.78;;
35188;SDS011;21762;54.480;18.556;2022-09-29T09:33:59;6.00;;;4.25;;
35188;SDS011;21762;54.480;18.556;2022-09-29T09:36:32;7.65;;;4.90;;
35188;SDS011;21762;54.480;18.556;2022-09-29T09:39:03;10.00;;;6.07;;
35188;SDS011;21762;54.480;18.556;2022-09-29T09:41:33;8.18;;;5.22;;
35188;SDS011;21762;54.480;18.556;2022-09-29T09:44:05;7.10;;;4.70;;
35188;SDS011;21762;54.480;18.556;2022-09-29T09:46:38;8.35;;;4.68;;
35188;SDS011;21762;54.480;18.556;2022-09-29T09:49:10;11.65;;;5.03;;
35188;SDS011;21762;54.480;18.556;2022-09-29T09:51:43;11.57;;;5.07;;
35188;SDS011;21762;54.480;18.556;2022-09-29T09:54:15;9.43;;;4.90;;
35188;SDS011;21762;54.480;18.556;2022-09-29T09:56:55;13.23;;;5.07;;
35188;SDS011;21762;54.480;18.556;2022-09-29T09:59:36;10.10;;;4.25;;
35188;SDS011;21762;54.480;18.556;2022-09-29T10:02:10;8.20;;;4.47;;
35188;SDS011;21762;54.480;18.556;2022-09-29T10:04:44;6.35;;;4.05;;
35188;SDS011;21762;54.480;18.556;2022-09-29T10:07:13;9.43;;;5.35;;
35188;SDS011;21762;54.480;18.556;2022-09-29T10:09:42;7.28;;;4.22;;
35188;SDS011;21762;54.480;18.556;2022-09-29T10:12:11;6.63;;;3.97;;
35188;SDS011;21762;54.480;18.556;2022-09-29T10:14:44;6.93;;;4.70;;
35188;SDS011;21762;54.480;18.556;2022-09-29T10:17:16;5.38;;;3.70;;
35188;SDS011;21762;54.480;18.556;2022-09-29T10:19:53;10.15;;;4.32;;
35188;SDS011;21762;54.480;18.556;2022-09-29T10:22:23;7.22;;;3.35;;
35188;SDS011;21762;54.480;18.556;2022-09-29T10:24:52;4.80;;;2.92;;
35188;SDS011;21762;54.480;18.556;2022-09-29T10:27:23;5.65;;;3.30;;
35188;SDS011;21762;54.480;18.556;2022-09-29T10:30:00;7.75;;;4.35;;
35188;SDS011;21762;54.480;18.556;2022-09-29T10:32:29;9.38;;;3.20;;
35188;SDS011;21762;54.480;18.556;2022-09-29T10:35:05;6.90;;;4.43;;
35188;SDS011;21762;54.480;18.556;2022-09-29T10:37:37;15.32;;;3.67;;
35188;SDS011;21762;54.480;18.556;2022-09-29T10:40:12;5.70;;;3.43;;
35188;SDS011;21762;54.480;18.556;2022-09-29T10:42:45;8.80;;;4.05;;
35188;SDS011;21762;54.480;18.556;2022-09-29T10:45:16;15.57;;;3.40;;
35188;SDS011;21762;54.480;18.556;2022-09-29T10:47:46;4.20;;;3.28;;
35188;SDS011;21762;54.480;18.556;2022-09-29T10:50:16;5.05;;;3.40;;
35188;SDS011;21762;54.480;18.556;2022-09-29T10:52:47;5.63;;;3.55;;
35188;SDS011;21762;54.480;18.556;2022-09-29T10:55:20;4.55;;;3.10;;
35188;SDS011;21762;54.480;18.556;2022-09-29T10:57:50;5.53;;;3.45;;
35188;SDS011;21762;54.480;18.556;2022-09-29T11:00:25;3.72;;;2.88;;
35188;SDS011;21762;54.480;18.556;2022-09-29T11:03:07;5.35;;;2.83;;
35188;SDS011;21762;54.480;18.556;2022-09-29T11:05:53;6.10;;;2.97;;
35188;SDS011;21762;54.480;18.556;2022-09-29T11:08:25;6.53;;;3.42;;
35188;SDS011;21762;54.480;18.556;2022-09-29T11:11:01;4.78;;;3.40;;
35188;SDS011;21762;54.480;18.556;2022-09-29T11:13:33;4.10;;;2.42;;
35188;SDS011;21762;54.480;18.556;2022-09-29T11:16:11;3.30;;;2.58;;
35188;SDS011;21762;54.480;18.556;2022-09-29T11:18:45;5.55;;;2.65;;
35188;SDS011;21762;54.480;18.556;2022-09-29T11:21:36;4.75;;;2.88;;
35188;SDS011;21762;54.480;18.556;2022-09-29T11:24:21;4.30;;;2.72;;
35188;SDS011;21762;54.480;18.556;2022-09-29T11:27:10;4.70;;;3.28;;
35188;SDS011;21762;54.480;18.556;2022-09-29T11:29:43;7.88;;;3.47;;
35188;SDS011;21762;54.480;18.556;2022-09-29T11:32:26;5.22;;;3.03;;
35188;SDS011;21762;54.480;18.556;2022-09-29T11:35:04;6.45;;;3.00;;
35188;SDS011;21762;54.480;18.556;2022-09-29T11:37:44;12.98;;;3.63;;
35188;SDS011;21762;54.480;18.556;2022-09-29T11:40:21;6.47;;;3.05;;
35188;SDS011;21762;54.480;18.556;2022-09-29T11:42:57;4.53;;;3.00;;
35188;SDS011;21762;54.480;18.556;2022-09-29T11:45:35;9.50;;;3.45;;
35188;SDS011;21762;54.480;18.556;2022-09-29T11:51:10;5.25;;;3.28;;
35188;SDS011;21762;54.480;18.556;2022-09-29T11:53:50;5.88;;;3.13;;
35188;SDS011;21762;54.480;18.556;2022-09-29T11:56:28;5.43;;;2.70;;
35188;SDS011;21762;54.480;18.556;2022-09-29T12:01:52;3.50;;;2.65;;
35188;SDS011;21762;54.480;18.556;2022-09-29T12:04:34;8.82;;;3.08;;
35188;SDS011;21762;54.480;18.556;2022-09-29T12:07:09;7.20;;;2.70;;
35188;SDS011;21762;54.480;18.556;2022-09-29T12:09:49;4.35;;;2.35;;
35188;SDS011;21762;54.480;18.556;2022-09-29T12:12:24;3.47;;;2.30;;
35188;SDS011;21762;54.480;18.556;2022-09-29T12:15:06;3.05;;;2.22;;
35188;SDS011;21762;54.480;18.556;2022-09-29T12:17:43;3.95;;;2.30;;
35188;SDS011;21762;54.480;18.556;2022-09-29T12:20:17;4.18;;;1.90;;
35188;SDS011;21762;54.480;18.556;2022-09-29T12:22:47;3.17;;;1.50;;
35188;SDS011;21762;54.480;18.556;2022-09-29T12:25:18;4.47;;;1.83;;
35188;SDS011;21762;54.480;18.556;2022-09-29T12:27:48;2.88;;;1.52;;
35188;SDS011;21762;54.480;18.556;2022-09-29T12:30:18;6.80;;;2.03;;
35188;SDS011;21762;54.480;18.556;2022-09-29T12:32:49;2.63;;;1.73;;
35188;SDS011;21762;54.480;18.556;2022-09-29T12:35:21;2.72;;;1.63;;
35188;SDS011;21762;54.480;18.556;2022-09-29T12:37:53;4.88;;;2.13;;
35188;SDS011;21762;54.480;18.556;2022-09-29T12:40:26;4.82;;;2.20;;
35188;SDS011;21762;54.480;18.556;2022-09-29T12:43:03;4.15;;;2.00;;
35188;SDS011;21762;54.480;18.556;2022-09-29T12:45:37;5.57;;;1.88;;
35188;SDS011;21762;54.480;18.556;2022-09-29T12:48:15;2.15;;;1.45;;
35188;SDS011;21762;54.480;18.556;2022-09-29T12:50:51;1.70;;;1.25;;
35188;SDS011;21762;54.480;18.556;2022-09-29T12:53:26;3.28;;;2.22;;
35188;SDS011;21762;54.480;18.556;2022-09-29T12:55:59;6.55;;;2.53;;
35188;SDS011;21762;54.480;18.556;2022-09-29T12:58:31;4.03;;;1.80;;
35188;SDS011;21762;54.480;18.556;2022-09-29T13:01:12;7.88;;;2.20;;
35188;SDS011;21762;54.480;18.556;2022-09-29T13:03:52;9.38;;;3.05;;
35188;SDS011;21762;54.480;18.556;2022-09-29T13:06:51;4.63;;;2.03;;
35188;SDS011;21762;54.480;18.556;2022-09-29T13:09:33;5.32;;;2.15;;
35188;SDS011;21762;54.480;18.556;2022-09-29T13:12:24;3.78;;;2.03;;
35188;SDS011;21762;54.480;18.556;2022-09-29T13:17:52;4.40;;;2.30;;
35188;SDS011;21762;54.480;18.556;2022-09-29T13:23:29;8.15;;;2.20;;
35188;SDS011;21762;54.480;18.556;2022-09-29T13:26:11;4.15;;;2.40;;
35188;SDS011;21762;54.480;18.556;2022-09-29T13:28:56;3.95;;;1.77;;
35188;SDS011;21762;54.480;18.556;2022-09-29T13:31:28;6.22;;;2.08;;
35188;SDS011;21762;54.480;18.556;2022-09-29T13:33:59;6.15;;;2.25;;
35188;SDS011;21762;54.480;18.556;2022-09-29T13:36:28;4.07;;;1.60;;
35188;SDS011;21762;54.480;18.556;2022-09-29T13:39:03;5.13;;;2.17;;
35188;SDS011;21762;54.480;18.556;2022-09-29T13:41:35;3.72;;;2.00;;
35188;SDS011;21762;54.480;18.556;2022-09-29T13:46:52;5.40;;;1.98;;
35188;SDS011;21762;54.480;18.556;2022-09-29T13:49:22;7.03;;;2.10;;
35188;SDS011;21762;54.480;18.556;2022-09-29T13:51:55;3.42;;;1.80;;
35188;SDS011;21762;54.480;18.556;2022-09-29T13:54:32;4.18;;;1.80;;
35188;SDS011;21762;54.480;18.556;2022-09-29T14:00:04;2.42;;;1.90;;
35188;SDS011;21762;54.480;18.556;2022-09-29T14:02:43;3.72;;;1.65;;
35188;SDS011;21762;54.480;18.556;2022-09-29T14:05:36;3.75;;;2.15;;
35188;SDS011;21762;54.480;18.556;2022-09-29T14:08:11;11.50;;;2.95;;
35188;SDS011;21762;54.480;18.556;2022-09-29T14:10:45;4.00;;;1.67;;
35188;SDS011;21762;54.480;18.556;2022-09-29T14:13:15;7.88;;;2.10;;
35188;SDS011;21762;54.480;18.556;2022-09-29T14:15:49;2.97;;;1.70;;
35188;SDS011;21762;54.480;18.556;2022-09-29T14:18:20;4.55;;;2.00;;
35188;SDS011;21762;54.480;18.556;2022-09-29T14:20:56;2.15;;;1.77;;
35188;SDS011;21762;54.480;18.556;2022-09-29T14:23:45;5.22;;;1.70;;
35188;SDS011;21762;54.480;18.556;2022-09-29T14:29:15;10.55;;;1.85;;
35188;SDS011;21762;54.480;18.556;2022-09-29T14:31:45;3.00;;;1.98;;
35188;SDS011;21762;54.480;18.556;2022-09-29T14:34:17;2.70;;;2.00;;
35188;SDS011;21762;54.480;18.556;2022-09-29T14:36:48;5.68;;;1.98;;
35188;SDS011;21762;54.480;18.556;2022-09-29T14:39:19;5.47;;;1.90;;
35188;SDS011;21762;54.480;18.556;2022-09-29T14:41:52;6.47;;;2.10;;
35188;SDS011;21762;54.480;18.556;2022-09-29T14:44:22;3.78;;;1.83;;
35188;SDS011;21762;54.480;18.556;2022-09-29T14:47:03;3.78;;;2.15;;
35188;SDS011;21762;54.480;18.556;2022-09-29T14:50:00;3.35;;;1.75;;
35188;SDS011;21762;54.480;18.556;2022-09-29T14:52:59;3.90;;;2.00;;
35188;SDS011;21762;54.480;18.556;2022-09-29T14:55:35;12.95;;;2.75;;
35188;SDS011;21762;54.480;18.556;2022-09-29T14:58:14;10.18;;;3.17;;
35188;SDS011;21762;54.480;18.556;2022-09-29T15:00:54;6.35;;;2.55;;
35188;SDS011;21762;54.480;18.556;2022-09-29T15:03:29;5.18;;;2.88;;
35188;SDS011;21762;54.480;18.556;2022-09-29T15:06:05;6.72;;;2.90;;
35188;SDS011;21762;54.480;18.556;2022-09-29T15:08:39;10.95;;;3.85;;
35188;SDS011;21762;54.480;18.556;2022-09-29T15:11:24;10.95;;;4.20;;
35188;SDS011;21762;54.480;18.556;2022-09-29T15:14:21;4.03;;;2.20;;
35188;SDS011;21762;54.480;18.556;2022-09-29T15:16:54;5.15;;;2.20;;
35188;SDS011;21762;54.480;18.556;2022-09-29T15:22:37;4.10;;;2.05;;
35188;SDS011;21762;54.480;18.556;2022-09-29T15:25:31;2.53;;;1.50;;
35188;SDS011;21762;54.480;18.556;2022-09-29T15:28:02;3.92;;;2.30;;
35188;SDS011;21762;54.480;18.556;2022-09-29T15:30:32;2.72;;;1.80;;